createdAt,value
2023-03-28T00:02:07.784Z,26.27
2023-03-28T00:04:37.531Z,15.25
2023-03-28T00:07:06.609Z,29.25
2023-03-28T00:09:34.856Z,32.10
2023-03-28T00:12:02.864Z,17.48
2023-03-28T00:14:31.258Z,19.95
2023-03-28T00:17:01.954Z,91.50
2023-03-28T00:19:33.093Z,20.65
2023-03-28T00:22:01.608Z,17.20
2023-03-28T00:24:29.577Z,17.90
2023-03-28T00:27:00.473Z,18.05
2023-03-28T00:29:30.151Z,17.95
2023-03-28T00:31:58.500Z,17.15
2023-03-28T00:34:26.843Z,17.90
2023-03-28T00:36:56.263Z,17.60
2023-03-28T00:39:26.496Z,18.10
2023-03-28T00:41:55.496Z,23.30
2023-03-28T00:44:45.489Z,24.95
2023-03-28T00:47:25.598Z,22.75
2023-03-28T00:49:58.802Z,19.73
2023-03-28T00:52:32.219Z,27.20
2023-03-28T00:55:01.539Z,29.13
2023-03-28T00:57:30.176Z,20.80
2023-03-28T00:59:58.503Z,23.55
2023-03-28T01:02:27.091Z,22.23
2023-03-28T01:04:59.418Z,29.70
2023-03-28T01:07:33.451Z,22.88
2023-03-28T01:10:04.004Z,23.90
2023-03-28T01:12:34.460Z,24.08
2023-03-28T01:15:04.282Z,30.30
2023-03-28T01:17:42.797Z,18.30
2023-03-28T01:20:29.512Z,18.63
2023-03-28T01:23:38.331Z,19.05
2023-03-28T01:26:37.457Z,21.48
2023-03-28T01:30:01.055Z,21.75
2023-03-28T01:33:26.610Z,21.55
2023-03-28T01:36:33.963Z,27.88
2023-03-28T01:39:09.406Z,23.52
2023-03-28T01:41:46.921Z,21.70
2023-03-28T01:44:25.438Z,25.83
2023-03-28T01:47:01.471Z,16.85
2023-03-28T01:49:35.588Z,16.90
2023-03-28T01:52:10.097Z,25.33
2023-03-28T01:54:45.953Z,19.95
2023-03-28T01:57:21.492Z,22.58
2023-03-28T01:59:54.313Z,28.48
2023-03-28T02:02:31.354Z,23.73
2023-03-28T02:05:25.004Z,16.98
2023-03-28T02:07:54.665Z,25.33
2023-03-28T02:10:35.899Z,24.80
2023-03-28T02:13:18.785Z,24.02
2023-03-28T02:15:53.641Z,19.65
2023-03-28T02:18:34.466Z,14.88
2023-03-28T02:21:24.436Z,19.85
2023-03-28T02:24:09.793Z,19.60
2023-03-28T02:27:10.976Z,23.73
2023-03-28T02:29:49.358Z,24.85
2023-03-28T02:32:21.912Z,17.80
2023-03-28T02:34:53.417Z,23.65
2023-03-28T02:37:33.905Z,22.17
2023-03-28T02:40:15.969Z,20.77
2023-03-28T02:43:16.718Z,24.58
2023-03-28T02:46:10.121Z,25.65
2023-03-28T02:48:54.120Z,20.88
2023-03-28T02:51:31.784Z,20.20
2023-03-28T02:54:13.189Z,61.72
2023-03-28T02:56:51.038Z,18.77
2023-03-28T02:59:49.498Z,17.98
2023-03-28T03:02:19.133Z,21.05
2023-03-28T03:04:47.577Z,17.40
2023-03-28T03:07:17.982Z,21.83
2023-03-28T03:09:46.697Z,18.08
2023-03-28T03:12:14.933Z,16.77
2023-03-28T03:14:44.269Z,16.83
2023-03-28T03:17:32.396Z,19.77
2023-03-28T03:20:06.576Z,23.35
2023-03-28T03:22:39.799Z,18.92
2023-03-28T03:25:09.331Z,14.88
2023-03-28T03:27:55.917Z,14.30
2023-03-28T03:30:24.599Z,16.75
2023-03-28T03:33:16.900Z,24.40
2023-03-28T03:35:47.813Z,22.13
2023-03-28T03:38:18.134Z,21.60
2023-03-28T03:40:46.196Z,24.27
2023-03-28T03:43:15.193Z,18.33
2023-03-28T03:45:45.936Z,23.83
2023-03-28T03:48:15.533Z,24.25
2023-03-28T03:50:43.734Z,22.60
2023-03-28T03:53:15.803Z,22.40
2023-03-28T03:56:05.125Z,21.75
2023-03-28T03:58:51.353Z,111.85
2023-03-28T04:03:57.122Z,35.00
2023-03-28T04:06:33.923Z,56.70
2023-03-28T04:09:07.702Z,62.30
2023-03-28T04:11:57.601Z,88.20
2023-03-28T04:14:26.017Z,88.90
2023-03-28T04:17:06.933Z,86.88
2023-03-28T04:19:40.163Z,123.10
2023-03-28T04:22:08.419Z,132.75
2023-03-28T04:24:37.186Z,138.98
2023-03-28T04:27:31.880Z,123.53
2023-03-28T04:30:00.605Z,78.30
2023-03-28T04:33:06.916Z,45.83
2023-03-28T04:35:41.138Z,138.07
2023-03-28T04:38:09.747Z,117.10
2023-03-28T04:40:57.781Z,126.43
2023-03-28T04:43:48.852Z,120.10
2023-03-28T04:46:17.593Z,133.38
2023-03-28T04:48:47.177Z,136.75
2023-03-28T04:51:20.983Z,103.70
2023-03-28T04:53:49.032Z,114.07
2023-03-28T04:56:35.397Z,111.93
2023-03-28T04:59:03.613Z,126.63
2023-03-28T05:01:33.112Z,137.38
2023-03-28T05:04:23.610Z,127.28
2023-03-28T05:06:53.081Z,66.57
2023-03-28T05:09:22.601Z,17.92
2023-03-28T05:14:44.834Z,49.55
2023-03-28T05:17:16.568Z,80.63
2023-03-28T05:19:57.887Z,64.85
2023-03-28T05:22:28.601Z,67.95
2023-03-28T05:25:00.713Z,103.22
2023-03-28T05:27:28.893Z,111.13
2023-03-28T05:29:58.274Z,101.78
2023-03-28T05:32:28.409Z,114.30
2023-03-28T05:34:56.980Z,107.15
2023-03-28T05:37:28.787Z,115.97
2023-03-28T05:39:57.030Z,102.47
2023-03-28T05:42:25.016Z,101.72
2023-03-28T05:44:53.052Z,99.63
2023-03-28T05:47:41.644Z,92.65
2023-03-28T05:50:11.241Z,89.55
2023-03-28T05:52:40.050Z,74.63
2023-03-28T05:55:08.833Z,57.58
2023-03-28T06:00:13.894Z,112.10
2023-03-28T06:05:38.760Z,17.42
2023-03-28T06:08:18.753Z,80.32
2023-03-28T06:10:47.024Z,102.18
2023-03-28T06:13:41.226Z,109.90
2023-03-28T06:16:11.463Z,111.55
2023-03-28T06:18:39.474Z,84.03
2023-03-28T06:21:09.203Z,85.47
2023-03-28T06:23:37.236Z,108.95
2023-03-28T06:26:05.461Z,110.93
2023-03-28T06:28:42.784Z,84.53
2023-03-28T06:31:19.727Z,120.38
2023-03-28T06:33:48.217Z,112.68
2023-03-28T06:36:20.874Z,112.35
2023-03-28T06:38:50.336Z,113.30
2023-03-28T06:41:18.495Z,127.22
2023-03-28T06:43:47.153Z,114.40
2023-03-28T06:46:50.472Z,113.97
2023-03-28T06:49:18.895Z,121.70
2023-03-28T06:52:24.669Z,126.25
2023-03-28T06:54:54.308Z,118.75
2023-03-28T06:57:22.631Z,123.00
2023-03-28T06:59:54.978Z,122.05
2023-03-28T07:02:30.989Z,118.90
2023-03-28T07:05:11.338Z,126.05
2023-03-28T07:07:41.207Z,128.88
2023-03-28T07:10:10.326Z,120.97
2023-03-28T07:12:39.222Z,123.13
2023-03-28T07:15:09.160Z,130.18
2023-03-28T07:17:37.376Z,125.43
2023-03-28T07:20:06.438Z,93.35
2023-03-28T07:22:34.572Z,126.50
2023-03-28T07:25:04.043Z,125.93
2023-03-28T07:27:32.722Z,128.68
2023-03-28T07:30:00.905Z,87.63
2023-03-28T07:32:35.796Z,127.93
2023-03-28T07:35:08.995Z,127.07
2023-03-28T07:37:47.305Z,125.55
2023-03-28T07:40:36.414Z,100.25
2023-03-28T07:43:05.031Z,125.72
2023-03-28T07:45:33.127Z,127.07
2023-03-28T07:48:01.305Z,127.50
2023-03-28T07:50:29.930Z,128.20
2023-03-28T07:52:59.180Z,128.18
2023-03-28T07:55:30.360Z,139.05
2023-03-28T07:58:00.276Z,125.00
2023-03-28T08:00:32.192Z,132.48
2023-03-28T08:03:19.458Z,137.98
2023-03-28T08:05:52.082Z,134.68
2023-03-28T08:08:22.612Z,135.00
2023-03-28T08:11:13.300Z,139.10
2023-03-28T08:13:42.635Z,140.73
2023-03-28T08:16:19.670Z,133.70
2023-03-28T08:18:56.987Z,132.90
2023-03-28T08:21:31.138Z,138.95
2023-03-28T08:23:59.268Z,127.47
2023-03-28T08:26:39.557Z,132.07
2023-03-28T08:29:10.217Z,130.27
2023-03-28T08:31:39.585Z,133.48
2023-03-28T08:34:13.051Z,137.27
2023-03-28T08:36:43.277Z,100.80
2023-03-28T08:39:24.382Z,130.75
2023-03-28T08:42:09.387Z,127.65
2023-03-28T08:44:51.963Z,132.65
2023-03-28T08:47:25.338Z,135.05
2023-03-28T08:49:57.831Z,132.55
2023-03-28T08:52:27.048Z,131.27
2023-03-28T08:55:01.301Z,132.90
2023-03-28T08:57:33.215Z,137.75
2023-03-28T09:00:12.781Z,139.23
2023-03-28T09:02:41.223Z,143.93
2023-03-28T09:05:23.189Z,134.77
2023-03-28T09:08:04.144Z,132.30
2023-03-28T09:10:40.994Z,139.13
2023-03-28T09:13:34.304Z,137.80
2023-03-28T09:16:23.900Z,134.43
2023-03-28T09:19:37.075Z,134.38
2023-03-28T09:22:55.254Z,137.82
2023-03-28T09:25:38.883Z,137.23
2023-03-28T09:28:19.529Z,142.13
2023-03-28T09:30:51.627Z,139.55
2023-03-28T10:19:55.274Z,16.90
2023-03-28T10:22:29.127Z,36.47
2023-03-28T10:24:59.626Z,21.25
2023-03-28T10:27:32.716Z,71.93
2023-03-28T10:30:12.362Z,97.43
2023-03-28T10:32:41.077Z,28.15
2023-03-28T10:35:27.996Z,23.45
2023-03-28T10:38:05.609Z,19.15
2023-03-28T10:41:12.611Z,48.85
2023-03-28T10:44:18.923Z,25.33
2023-03-28T10:47:18.993Z,17.42
2023-03-28T10:49:56.643Z,18.25
2023-03-28T10:52:37.344Z,26.98
2023-03-28T10:55:14.984Z,36.80
2023-03-28T11:00:35.312Z,133.50
2023-03-28T11:03:19.607Z,133.23
2023-03-28T11:06:08.188Z,131.68
2023-03-28T11:08:48.586Z,140.65
2023-03-28T11:11:36.749Z,132.15
2023-03-28T11:14:15.509Z,136.65
2023-03-28T11:16:54.613Z,139.43
2023-03-28T11:19:51.105Z,139.88
2023-03-28T11:22:30.775Z,135.40
2023-03-28T11:25:07.403Z,140.25
2023-03-28T11:28:01.898Z,137.00
2023-03-28T11:30:38.039Z,137.52
2023-03-28T11:33:26.041Z,139.05
2023-03-28T11:36:04.755Z,140.52
2023-03-28T11:38:36.292Z,143.98
2023-03-28T11:41:10.791Z,135.50
2023-03-28T11:44:17.106Z,145.05
2023-03-28T11:46:51.287Z,137.40
2023-03-28T11:49:26.077Z,138.45
2023-03-28T11:52:00.612Z,140.15
2023-03-28T11:54:36.574Z,142.80
2023-03-28T11:57:12.645Z,142.00
2023-03-28T11:59:52.796Z,139.43
2023-03-28T12:02:41.352Z,142.25
2023-03-28T12:05:21.004Z,147.93
2023-03-28T12:07:55.562Z,142.70
2023-03-28T12:10:35.885Z,141.32
2023-03-28T12:13:14.225Z,145.15
2023-03-28T12:15:57.158Z,144.35
2023-03-28T12:18:32.263Z,141.82
2023-03-28T12:21:08.632Z,142.27
2023-03-28T12:23:57.450Z,139.75
2023-03-28T12:26:37.290Z,145.55
2023-03-28T12:29:13.809Z,145.07
2023-03-28T12:31:48.018Z,149.43
2023-03-28T12:34:28.736Z,138.25
2023-03-28T12:37:25.733Z,143.27
2023-03-28T12:40:00.270Z,146.27
2023-03-28T12:42:31.434Z,150.88
2023-03-28T12:45:03.682Z,140.45
2023-03-28T12:47:37.461Z,144.65
2023-03-28T12:50:09.063Z,146.90
2023-03-28T13:37:49.104Z,17.60
2023-03-28T13:40:45.524Z,18.88
2023-03-28T13:43:25.035Z,17.70
2023-03-28T13:45:55.928Z,18.85
2023-03-28T13:50:54.968Z,48.22
2023-03-28T13:53:28.239Z,50.38
2023-03-28T14:08:28.330Z,107.38
2023-03-28T16:54:21.591Z,157.35
2023-03-28T16:56:49.881Z,149.98
2023-03-28T16:59:18.064Z,166.30
2023-03-28T17:01:47.688Z,151.75
2023-03-28T17:12:25.156Z,161.35
2023-03-28T17:14:53.514Z,167.35
2023-03-28T17:17:21.538Z,173.85
2023-03-28T17:19:50.369Z,171.25
2023-03-28T17:22:18.665Z,144.20
2023-03-28T17:24:46.963Z,155.60
2023-03-28T17:27:15.896Z,136.75
2023-03-28T17:29:45.330Z,135.68
2023-03-28T17:32:13.659Z,150.77
